sensor_id;sensor_type;location;lat;lon;timestamp;temperature;humidity
51661;DHT22;37741;49.748;8.490;2023-05-10T00:01:40;17.80;80.80
51661;DHT22;37741;49.748;8.490;2023-05-10T00:04:06;17.80;80.80
51661;DHT22;37741;49.748;8.490;2023-05-10T00:06:31;17.80;81.00
51661;DHT22;37741;49.748;8.490;2023-05-10T00:08:57;17.70;80.80
51661;DHT22;37741;49.748;8.490;2023-05-10T00:11:23;17.70;80.80
51661;DHT22;37741;49.748;8.490;2023-05-10T00:13:48;17.80;81.00
51661;DHT22;37741;49.748;8.490;2023-05-10T00:16:14;17.70;81.00
51661;DHT22;37741;49.748;8.490;2023-05-10T00:18:40;17.70;81.00
51661;DHT22;37741;49.748;8.490;2023-05-10T00:21:06;17.70;81.00
51661;DHT22;37741;49.748;8.490;2023-05-10T00:23:31;17.60;80.80
51661;DHT22;37741;49.748;8.490;2023-05-10T00:25:57;17.60;81.00
51661;DHT22;37741;49.748;8.490;2023-05-10T00:28:23;17.60;81.00
51661;DHT22;37741;49.748;8.490;2023-05-10T00:30:48;17.60;81.10
51661;DHT22;37741;49.748;8.490;2023-05-10T00:33:14;17.60;81.10
51661;DHT22;37741;49.748;8.490;2023-05-10T00:35:40;17.50;81.00
51661;DHT22;37741;49.748;8.490;2023-05-10T00:38:05;17.50;81.10
51661;DHT22;37741;49.748;8.490;2023-05-10T00:40:31;17.50;81.10
51661;DHT22;37741;49.748;8.490;2023-05-10T00:42:57;17.50;81.10
51661;DHT22;37741;49.748;8.490;2023-05-10T00:45:23;17.50;81.70
51661;DHT22;37741;49.748;8.490;2023-05-10T00:47:49;17.50;81.20
51661;DHT22;37741;49.748;8.490;2023-05-10T00:50:17;17.50;81.20
51661;DHT22;37741;49.748;8.490;2023-05-10T00:52:43;17.40;81.20
51661;DHT22;37741;49.748;8.490;2023-05-10T00:55:10;17.40;81.10
51661;DHT22;37741;49.748;8.490;2023-05-10T00:57:36;17.40;81.20
51661;DHT22;37741;49.748;8.490;2023-05-10T01:00:03;17.40;81.20
51661;DHT22;37741;49.748;8.490;2023-05-10T01:02:28;17.30;81.10
51661;DHT22;37741;49.748;8.490;2023-05-10T01:04:54;17.30;81.10
51661;DHT22;37741;49.748;8.490;2023-05-10T01:07:20;17.30;81.20
51661;DHT22;37741;49.748;8.490;2023-05-10T01:09:46;17.30;81.30
51661;DHT22;37741;49.748;8.490;2023-05-10T01:12:12;17.30;81.30
51661;DHT22;37741;49.748;8.490;2023-05-10T01:14:37;17.20;81.30
51661;DHT22;37741;49.748;8.490;2023-05-10T01:17:04;17.20;81.30
51661;DHT22;37741;49.748;8.490;2023-05-10T01:19:31;17.20;81.30
51661;DHT22;37741;49.748;8.490;2023-05-10T01:27:47;17.10;81.30
51661;DHT22;37741;49.748;8.490;2023-05-10T01:36:03;17.10;81.50
51661;DHT22;37741;49.748;8.490;2023-05-10T01:38:47;17.10;81.40
51661;DHT22;37741;49.748;8.490;2023-05-10T01:44:01;17.00;81.50
51661;DHT22;37741;49.748;8.490;2023-05-10T01:46:34;17.00;81.50
51661;DHT22;37741;49.748;8.490;2023-05-10T01:49:03;17.00;81.50
51661;DHT22;37741;49.748;8.490;2023-05-10T01:51:39;17.00;81.60
51661;DHT22;37741;49.748;8.490;2023-05-10T01:54:06;17.00;81.60
51661;DHT22;37741;49.748;8.490;2023-05-10T01:56:35;16.90;81.50
51661;DHT22;37741;49.748;8.490;2023-05-10T01:59:05;16.90;81.50
51661;DHT22;37741;49.748;8.490;2023-05-10T02:01:33;17.00;81.60
51661;DHT22;37741;49.748;8.490;2023-05-10T02:04:01;16.90;81.60
51661;DHT22;37741;49.748;8.490;2023-05-10T02:06:27;16.90;81.70
51661;DHT22;37741;49.748;8.490;2023-05-10T02:08:53;16.90;81.70
51661;DHT22;37741;49.748;8.490;2023-05-10T02:11:20;16.90;81.70
51661;DHT22;37741;49.748;8.490;2023-05-10T02:13:48;16.90;81.80
51661;DHT22;37741;49.748;8.490;2023-05-10T02:16:15;16.80;81.60
51661;DHT22;37741;49.748;8.490;2023-05-10T02:18:42;16.80;81.80
51661;DHT22;37741;49.748;8.490;2023-05-10T02:21:09;16.80;82.40
51661;DHT22;37741;49.748;8.490;2023-05-10T02:23:36;16.80;81.80
51661;DHT22;37741;49.748;8.490;2023-05-10T02:26:02;16.80;81.70
51661;DHT22;37741;49.748;8.490;2023-05-10T02:28:29;16.80;81.80
51661;DHT22;37741;49.748;8.490;2023-05-10T02:30:56;16.80;81.80
51661;DHT22;37741;49.748;8.490;2023-05-10T02:33:22;16.70;81.80
51661;DHT22;37741;49.748;8.490;2023-05-10T02:35:50;16.70;81.70
51661;DHT22;37741;49.748;8.490;2023-05-10T02:38:17;16.70;81.80
51661;DHT22;37741;49.748;8.490;2023-05-10T02:40:44;16.70;81.90
51661;DHT22;37741;49.748;8.490;2023-05-10T02:43:13;16.70;81.80
51661;DHT22;37741;49.748;8.490;2023-05-10T02:45:40;16.70;81.90
51661;DHT22;37741;49.748;8.490;2023-05-10T02:48:07;16.70;81.90
51661;DHT22;37741;49.748;8.490;2023-05-10T02:50:33;16.60;81.70
51661;DHT22;37741;49.748;8.490;2023-05-10T02:53:11;16.60;81.80
51661;DHT22;37741;49.748;8.490;2023-05-10T02:55:40;16.60;81.80
51661;DHT22;37741;49.748;8.490;2023-05-10T02:58:08;16.60;81.90
51661;DHT22;37741;49.748;8.490;2023-05-10T03:00:33;16.60;81.90
51661;DHT22;37741;49.748;8.490;2023-05-10T03:02:59;16.60;81.90
51661;DHT22;37741;49.748;8.490;2023-05-10T03:05:25;16.60;82.00
51661;DHT22;37741;49.748;8.490;2023-05-10T03:07:52;16.60;82.00
51661;DHT22;37741;49.748;8.490;2023-05-10T03:10:18;16.50;81.90
51661;DHT22;37741;49.748;8.490;2023-05-10T03:13:01;16.50;82.00
51661;DHT22;37741;49.748;8.490;2023-05-10T03:18:22;16.50;82.00
51661;DHT22;37741;49.748;8.490;2023-05-10T03:20:50;16.50;82.00
51661;DHT22;37741;49.748;8.490;2023-05-10T03:23:22;16.50;82.00
51661;DHT22;37741;49.748;8.490;2023-05-10T03:25:52;16.50;82.10
51661;DHT22;37741;49.748;8.490;2023-05-10T03:28:18;16.50;82.10
51661;DHT22;37741;49.748;8.490;2023-05-10T03:30:46;16.50;82.10
51661;DHT22;37741;49.748;8.490;2023-05-10T03:33:12;16.40;82.10
51661;DHT22;37741;49.748;8.490;2023-05-10T03:35:38;16.50;82.10
51661;DHT22;37741;49.748;8.490;2023-05-10T03:38:04;16.40;82.10
51661;DHT22;37741;49.748;8.490;2023-05-10T03:40:29;16.40;82.10
51661;DHT22;37741;49.748;8.490;2023-05-10T03:42:57;16.40;82.20
51661;DHT22;37741;49.748;8.490;2023-05-10T03:45:23;16.40;82.20
51661;DHT22;37741;49.748;8.490;2023-05-10T03:47:49;16.40;82.20
51661;DHT22;37741;49.748;8.490;2023-05-10T03:50:14;16.40;82.10
51661;DHT22;37741;49.748;8.490;2023-05-10T03:52:40;16.40;82.10
51661;DHT22;37741;49.748;8.490;2023-05-10T03:55:06;16.40;82.10
51661;DHT22;37741;49.748;8.490;2023-05-10T03:57:33;16.40;82.20
51661;DHT22;37741;49.748;8.490;2023-05-10T03:59:59;16.30;82.10
51661;DHT22;37741;49.748;8.490;2023-05-10T04:02:25;16.30;82.20
51661;DHT22;37741;49.748;8.490;2023-05-10T04:04:50;16.30;82.20
51661;DHT22;37741;49.748;8.490;2023-05-10T04:07:16;16.30;82.20
51661;DHT22;37741;49.748;8.490;2023-05-10T04:09:42;16.30;82.20
51661;DHT22;37741;49.748;8.490;2023-05-10T04:12:07;16.30;82.20
51661;DHT22;37741;49.748;8.490;2023-05-10T04:14:33;16.30;82.20
51661;DHT22;37741;49.748;8.490;2023-05-10T04:16:59;16.30;82.30
51661;DHT22;37741;49.748;8.490;2023-05-10T04:19:29;16.30;82.20
51661;DHT22;37741;49.748;8.490;2023-05-10T04:21:55;16.20;82.20
51661;DHT22;37741;49.748;8.490;2023-05-10T04:24:20;16.20;82.20
51661;DHT22;37741;49.748;8.490;2023-05-10T04:26:46;16.20;82.20
51661;DHT22;37741;49.748;8.490;2023-05-10T04:29:11;16.20;82.20
51661;DHT22;37741;49.748;8.490;2023-05-10T04:31:37;16.20;82.20
51661;DHT22;37741;49.748;8.490;2023-05-10T04:34:03;16.20;82.20
51661;DHT22;37741;49.748;8.490;2023-05-10T04:36:28;16.20;82.20
51661;DHT22;37741;49.748;8.490;2023-05-10T04:38:54;16.20;82.20
51661;DHT22;37741;49.748;8.490;2023-05-10T04:41:19;16.20;82.20
51661;DHT22;37741;49.748;8.490;2023-05-10T04:43:46;16.20;82.20
51661;DHT22;37741;49.748;8.490;2023-05-10T04:46:11;16.10;82.30
51661;DHT22;37741;49.748;8.490;2023-05-10T04:48:37;16.10;82.20
51661;DHT22;37741;49.748;8.490;2023-05-10T04:51:03;16.10;82.20
51661;DHT22;37741;49.748;8.490;2023-05-10T04:53:29;16.10;82.30
51661;DHT22;37741;49.748;8.490;2023-05-10T04:55:55;16.10;82.30
51661;DHT22;37741;49.748;8.490;2023-05-10T04:58:20;16.10;82.30
51661;DHT22;37741;49.748;8.490;2023-05-10T05:00:46;16.10;82.30
51661;DHT22;37741;49.748;8.490;2023-05-10T05:03:12;16.10;82.30
51661;DHT22;37741;49.748;8.490;2023-05-10T05:05:37;16.00;82.20
51661;DHT22;37741;49.748;8.490;2023-05-10T05:08:03;16.00;82.30
51661;DHT22;37741;49.748;8.490;2023-05-10T05:10:29;16.00;82.30
51661;DHT22;37741;49.748;8.490;2023-05-10T05:12:55;16.00;82.40
51661;DHT22;37741;49.748;8.490;2023-05-10T05:15:20;16.00;82.40
51661;DHT22;37741;49.748;8.490;2023-05-10T05:17:46;16.00;82.50
51661;DHT22;37741;49.748;8.490;2023-05-10T05:20:12;16.00;82.40
51661;DHT22;37741;49.748;8.490;2023-05-10T05:22:38;16.00;82.40
51661;DHT22;37741;49.748;8.490;2023-05-10T05:25:04;16.00;82.50
51661;DHT22;37741;49.748;8.490;2023-05-10T05:27:31;16.00;82.40
51661;DHT22;37741;49.748;8.490;2023-05-10T05:29:57;15.90;82.40
51661;DHT22;37741;49.748;8.490;2023-05-10T05:32:24;15.90;82.30
51661;DHT22;37741;49.748;8.490;2023-05-10T05:34:50;15.90;82.50
51661;DHT22;37741;49.748;8.490;2023-05-10T05:37:18;15.90;82.40
51661;DHT22;37741;49.748;8.490;2023-05-10T05:39:44;15.90;82.50
51661;DHT22;37741;49.748;8.490;2023-05-10T05:42:11;15.90;82.50
51661;DHT22;37741;49.748;8.490;2023-05-10T05:44:37;15.90;82.50
51661;DHT22;37741;49.748;8.490;2023-05-10T05:47:02;15.90;82.50
51661;DHT22;37741;49.748;8.490;2023-05-10T05:49:28;15.90;82.50
51661;DHT22;37741;49.748;8.490;2023-05-10T05:51:54;15.90;82.50
51661;DHT22;37741;49.748;8.490;2023-05-10T05:54:20;15.90;82.60
51661;DHT22;37741;49.748;8.490;2023-05-10T05:56:46;15.80;82.50
51661;DHT22;37741;49.748;8.490;2023-05-10T05:59:11;15.90;82.60
51661;DHT22;37741;49.748;8.490;2023-05-10T06:01:37;15.90;82.60
51661;DHT22;37741;49.748;8.490;2023-05-10T06:04:03;15.90;82.60
51661;DHT22;37741;49.748;8.490;2023-05-10T06:06:28;15.90;82.60
51661;DHT22;37741;49.748;8.490;2023-05-10T06:08:54;15.80;82.50
51661;DHT22;37741;49.748;8.490;2023-05-10T06:11:20;15.80;82.60
51661;DHT22;37741;49.748;8.490;2023-05-10T06:13:47;15.80;82.50
51661;DHT22;37741;49.748;8.490;2023-05-10T06:16:12;15.80;82.60
51661;DHT22;37741;49.748;8.490;2023-05-10T06:18:38;15.80;82.60
51661;DHT22;37741;49.748;8.490;2023-05-10T06:21:04;15.80;82.60
51661;DHT22;37741;49.748;8.490;2023-05-10T06:23:30;15.80;82.60
51661;DHT22;37741;49.748;8.490;2023-05-10T06:25:55;15.80;82.70
51661;DHT22;37741;49.748;8.490;2023-05-10T06:28:21;15.80;82.70
51661;DHT22;37741;49.748;8.490;2023-05-10T06:30:46;15.80;82.70
51661;DHT22;37741;49.748;8.490;2023-05-10T06:33:13;15.80;82.70
51661;DHT22;37741;49.748;8.490;2023-05-10T06:35:38;15.80;82.70
51661;DHT22;37741;49.748;8.490;2023-05-10T06:38:04;15.80;82.70
51661;DHT22;37741;49.748;8.490;2023-05-10T06:40:30;15.80;82.60
51661;DHT22;37741;49.748;8.490;2023-05-10T06:42:55;15.80;82.60
51661;DHT22;37741;49.748;8.490;2023-05-10T06:45:21;15.80;82.60
51661;DHT22;37741;49.748;8.490;2023-05-10T06:47:47;15.80;82.60
51661;DHT22;37741;49.748;8.490;2023-05-10T06:50:12;15.80;82.60
51661;DHT22;37741;49.748;8.490;2023-05-10T06:52:38;15.80;82.60
51661;DHT22;37741;49.748;8.490;2023-05-10T06:55:05;15.80;82.60
51661;DHT22;37741;49.748;8.490;2023-05-10T06:57:31;15.80;82.60
51661;DHT22;37741;49.748;8.490;2023-05-10T06:59:58;15.80;82.60
51661;DHT22;37741;49.748;8.490;2023-05-10T07:02:23;15.80;82.60
51661;DHT22;37741;49.748;8.490;2023-05-10T07:04:49;15.80;82.60
51661;DHT22;37741;49.748;8.490;2023-05-10T07:07:15;15.80;82.60
51661;DHT22;37741;49.748;8.490;2023-05-10T07:09:41;15.80;82.60
51661;DHT22;37741;49.748;8.490;2023-05-10T07:12:06;15.80;82.60
51661;DHT22;37741;49.748;8.490;2023-05-10T07:14:32;15.90;82.60
51661;DHT22;37741;49.748;8.490;2023-05-10T07:16:57;15.90;82.60
51661;DHT22;37741;49.748;8.490;2023-05-10T07:19:23;15.80;82.80
51661;DHT22;37741;49.748;8.490;2023-05-10T07:21:49;15.80;83.00
51661;DHT22;37741;49.748;8.490;2023-05-10T07:24:16;15.90;83.20
51661;DHT22;37741;49.748;8.490;2023-05-10T07:26:41;15.90;83.30
51661;DHT22;37741;49.748;8.490;2023-05-10T07:29:07;15.90;83.40
51661;DHT22;37741;49.748;8.490;2023-05-10T07:31:32;15.90;83.40
51661;DHT22;37741;49.748;8.490;2023-05-10T07:33:58;15.90;83.30
51661;DHT22;37741;49.748;8.490;2023-05-10T07:36:24;15.90;83.30
51661;DHT22;37741;49.748;8.490;2023-05-10T07:38:49;15.90;83.30
51661;DHT22;37741;49.748;8.490;2023-05-10T07:41:15;16.00;83.30
51661;DHT22;37741;49.748;8.490;2023-05-10T07:43:41;16.00;83.20
51661;DHT22;37741;49.748;8.490;2023-05-10T07:46:06;16.00;83.20
51661;DHT22;37741;49.748;8.490;2023-05-10T07:48:32;16.00;83.20
51661;DHT22;37741;49.748;8.490;2023-05-10T07:50:57;16.00;83.10
51661;DHT22;37741;49.748;8.490;2023-05-10T07:53:24;16.00;83.10
51661;DHT22;37741;49.748;8.490;2023-05-10T07:55:51;16.00;83.10
51661;DHT22;37741;49.748;8.490;2023-05-10T07:58:17;16.00;82.90
51661;DHT22;37741;49.748;8.490;2023-05-10T08:00:42;16.00;82.90
51661;DHT22;37741;49.748;8.490;2023-05-10T08:03:08;16.00;82.90
51661;DHT22;37741;49.748;8.490;2023-05-10T08:05:33;16.00;82.80
51661;DHT22;37741;49.748;8.490;2023-05-10T08:07:59;16.00;82.70
51661;DHT22;37741;49.748;8.490;2023-05-10T08:10:25;16.10;82.70
51661;DHT22;37741;49.748;8.490;2023-05-10T08:12:51;16.10;82.70
51661;DHT22;37741;49.748;8.490;2023-05-10T08:15:16;16.00;82.70
51661;DHT22;37741;49.748;8.490;2023-05-10T08:17:42;16.10;82.70
51661;DHT22;37741;49.748;8.490;2023-05-10T08:20:08;16.10;82.80
51661;DHT22;37741;49.748;8.490;2023-05-10T08:22:34;16.10;82.70
51661;DHT22;37741;49.748;8.490;2023-05-10T08:25:00;16.10;82.70
51661;DHT22;37741;49.748;8.490;2023-05-10T08:27:25;16.10;82.70
51661;DHT22;37741;49.748;8.490;2023-05-10T08:29:51;16.10;82.60
51661;DHT22;37741;49.748;8.490;2023-05-10T08:32:17;16.20;82.70
51661;DHT22;37741;49.748;8.490;2023-05-10T08:34:42;16.20;82.80
51661;DHT22;37741;49.748;8.490;2023-05-10T08:37:08;16.20;82.70
51661;DHT22;37741;49.748;8.490;2023-05-10T08:39:35;16.20;82.80
51661;DHT22;37741;49.748;8.490;2023-05-10T08:42:03;16.30;83.00
51661;DHT22;37741;49.748;8.490;2023-05-10T08:44:31;16.30;83.10
51661;DHT22;37741;49.748;8.490;2023-05-10T08:46:59;16.30;83.30
51661;DHT22;37741;49.748;8.490;2023-05-10T08:49:27;16.40;83.10
51661;DHT22;37741;49.748;8.490;2023-05-10T08:51:56;16.40;83.00
51661;DHT22;37741;49.748;8.490;2023-05-10T08:54:22;16.40;82.80
51661;DHT22;37741;49.748;8.490;2023-05-10T08:56:48;16.40;82.40
51661;DHT22;37741;49.748;8.490;2023-05-10T08:59:14;16.50;82.60
51661;DHT22;37741;49.748;8.490;2023-05-10T09:01:40;16.50;82.60
51661;DHT22;37741;49.748;8.490;2023-05-10T09:04:07;16.50;82.40
51661;DHT22;37741;49.748;8.490;2023-05-10T09:06:33;16.50;81.80
51661;DHT22;37741;49.748;8.490;2023-05-10T09:08:59;16.50;82.20
51661;DHT22;37741;49.748;8.490;2023-05-10T09:11:25;16.60;82.10
51661;DHT22;37741;49.748;8.490;2023-05-10T09:13:54;16.60;82.00
51661;DHT22;37741;49.748;8.490;2023-05-10T09:16:20;16.60;81.50
51661;DHT22;37741;49.748;8.490;2023-05-10T09:18:46;16.70;81.70
51661;DHT22;37741;49.748;8.490;2023-05-10T09:21:12;16.70;81.30
51661;DHT22;37741;49.748;8.490;2023-05-10T09:23:43;16.70;81.30
51661;DHT22;37741;49.748;8.490;2023-05-10T09:26:08;16.70;81.20
51661;DHT22;37741;49.748;8.490;2023-05-10T09:28:52;16.80;80.90
51661;DHT22;37741;49.748;8.490;2023-05-10T09:31:18;16.80;80.80
51661;DHT22;37741;49.748;8.490;2023-05-10T09:33:45;16.80;80.40
51661;DHT22;37741;49.748;8.490;2023-05-10T09:36:11;16.80;80.40
51661;DHT22;37741;49.748;8.490;2023-05-10T09:38:51;16.80;80.20
51661;DHT22;37741;49.748;8.490;2023-05-10T09:41:24;16.90;80.10
51661;DHT22;37741;49.748;8.490;2023-05-10T09:43:51;16.90;80.20
51661;DHT22;37741;49.748;8.490;2023-05-10T09:46:20;17.00;79.80
51661;DHT22;37741;49.748;8.490;2023-05-10T09:48:47;16.90;79.50
51661;DHT22;37741;49.748;8.490;2023-05-10T09:51:23;17.00;79.00
51661;DHT22;37741;49.748;8.490;2023-05-10T09:54:08;17.10;78.80
51661;DHT22;37741;49.748;8.490;2023-05-10T09:56:34;17.10;79.10
51661;DHT22;37741;49.748;8.490;2023-05-10T09:59:04;17.10;79.00
51661;DHT22;37741;49.748;8.490;2023-05-10T10:01:31;17.10;79.20
51661;DHT22;37741;49.748;8.490;2023-05-10T10:03:57;17.20;77.70
51661;DHT22;37741;49.748;8.490;2023-05-10T10:06:24;17.20;77.00
51661;DHT22;37741;49.748;8.490;2023-05-10T10:08:50;17.20;77.70
51661;DHT22;37741;49.748;8.490;2023-05-10T10:11:16;17.30;77.00
51661;DHT22;37741;49.748;8.490;2023-05-10T10:13:42;17.30;77.90
51661;DHT22;37741;49.748;8.490;2023-05-10T10:16:08;17.30;77.30
51661;DHT22;37741;49.748;8.490;2023-05-10T10:18:36;17.40;77.10
51661;DHT22;37741;49.748;8.490;2023-05-10T10:21:08;17.40;75.60
51661;DHT22;37741;49.748;8.490;2023-05-10T10:23:37;17.50;75.40
51661;DHT22;37741;49.748;8.490;2023-05-10T10:26:04;17.50;75.30
51661;DHT22;37741;49.748;8.490;2023-05-10T10:28:56;17.60;76.40
51661;DHT22;37741;49.748;8.490;2023-05-10T10:31:41;17.60;75.70
51661;DHT22;37741;49.748;8.490;2023-05-10T10:34:09;17.60;76.10
51661;DHT22;37741;49.748;8.490;2023-05-10T10:36:44;17.70;75.10
51661;DHT22;37741;49.748;8.490;2023-05-10T10:39:11;17.70;74.90
51661;DHT22;37741;49.748;8.490;2023-05-10T10:41:56;17.80;74.70
51661;DHT22;37741;49.748;8.490;2023-05-10T10:52:27;17.90;74.60
51661;DHT22;37741;49.748;8.490;2023-05-10T10:57:28;18.00;74.80
51661;DHT22;37741;49.748;8.490;2023-05-10T11:10:38;18.20;71.50
51661;DHT22;37741;49.748;8.490;2023-05-10T11:13:08;18.20;70.30
51661;DHT22;37741;49.748;8.490;2023-05-10T11:15:39;18.20;71.60
51661;DHT22;37741;49.748;8.490;2023-05-10T11:18:24;18.30;71.00
51661;DHT22;37741;49.748;8.490;2023-05-10T11:21:00;18.40;71.40
51661;DHT22;37741;49.748;8.490;2023-05-10T11:23:33;18.30;71.40
51661;DHT22;37741;49.748;8.490;2023-05-10T11:26:12;18.40;70.40
51661;DHT22;37741;49.748;8.490;2023-05-10T11:28:46;18.40;71.20
51661;DHT22;37741;49.748;8.490;2023-05-10T11:31:19;18.50;70.30
51661;DHT22;37741;49.748;8.490;2023-05-10T11:33:46;18.50;71.40
51661;DHT22;37741;49.748;8.490;2023-05-10T11:36:14;18.60;71.10
51661;DHT22;37741;49.748;8.490;2023-05-10T11:38:40;18.60;70.90
51661;DHT22;37741;49.748;8.490;2023-05-10T11:41:08;18.60;71.00
51661;DHT22;37741;49.748;8.490;2023-05-10T11:43:34;18.70;71.40
51661;DHT22;37741;49.748;8.490;2023-05-10T11:46:00;18.70;71.40
51661;DHT22;37741;49.748;8.490;2023-05-10T11:48:26;18.70;70.70
51661;DHT22;37741;49.748;8.490;2023-05-10T11:50:52;18.70;71.40
51661;DHT22;37741;49.748;8.490;2023-05-10T11:53:20;18.80;71.40
51661;DHT22;37741;49.748;8.490;2023-05-10T11:55:46;18.80;71.50
51661;DHT22;37741;49.748;8.490;2023-05-10T11:58:12;18.80;71.40
51661;DHT22;37741;49.748;8.490;2023-05-10T12:00:38;18.90;71.30
51661;DHT22;37741;49.748;8.490;2023-05-10T12:03:04;18.90;71.20
51661;DHT22;37741;49.748;8.490;2023-05-10T12:05:32;18.90;71.10
51661;DHT22;37741;49.748;8.490;2023-05-10T12:08:23;18.90;69.80
51661;DHT22;37741;49.748;8.490;2023-05-10T12:10:50;19.00;69.10
51661;DHT22;37741;49.748;8.490;2023-05-10T12:13:17;19.00;69.90
51661;DHT22;37741;49.748;8.490;2023-05-10T12:15:43;19.10;70.00
51661;DHT22;37741;49.748;8.490;2023-05-10T12:18:10;19.10;69.90
51661;DHT22;37741;49.748;8.490;2023-05-10T12:20:36;19.10;69.50
51661;DHT22;37741;49.748;8.490;2023-05-10T12:23:02;19.20;69.30
51661;DHT22;37741;49.748;8.490;2023-05-10T12:25:33;19.20;69.40
51661;DHT22;37741;49.748;8.490;2023-05-10T12:28:02;19.30;69.00
51661;DHT22;37741;49.748;8.490;2023-05-10T12:30:29;19.30;69.00
51661;DHT22;37741;49.748;8.490;2023-05-10T12:33:07;19.30;68.60
51661;DHT22;37741;49.748;8.490;2023-05-10T12:35:33;19.40;68.30
51661;DHT22;37741;49.748;8.490;2023-05-10T12:40:59;19.50;67.40
51661;DHT22;37741;49.748;8.490;2023-05-10T12:43:25;19.60;67.80
51661;DHT22;37741;49.748;8.490;2023-05-10T12:45:51;19.60;68.80
51661;DHT22;37741;49.748;8.490;2023-05-10T12:48:16;19.60;68.40
51661;DHT22;37741;49.748;8.490;2023-05-10T12:50:42;19.60;68.50
51661;DHT22;37741;49.748;8.490;2023-05-10T12:53:08;19.60;68.60
51661;DHT22;37741;49.748;8.490;2023-05-10T12:55:34;19.60;68.50
51661;DHT22;37741;49.748;8.490;2023-05-10T12:57:59;19.60;68.50
51661;DHT22;37741;49.748;8.490;2023-05-10T13:00:25;19.70;68.60
51661;DHT22;37741;49.748;8.490;2023-05-10T13:02:51;19.60;67.90
51661;DHT22;37741;49.748;8.490;2023-05-10T13:05:17;19.60;67.40
51661;DHT22;37741;49.748;8.490;2023-05-10T13:07:42;19.70;67.40
51661;DHT22;37741;49.748;8.490;2023-05-10T13:10:09;19.70;67.50
51661;DHT22;37741;49.748;8.490;2023-05-10T13:12:35;19.70;67.00
51661;DHT22;37741;49.748;8.490;2023-05-10T13:15:02;19.70;66.60
51661;DHT22;37741;49.748;8.490;2023-05-10T13:17:29;19.80;66.50
51661;DHT22;37741;49.748;8.490;2023-05-10T13:19:54;19.80;66.50
51661;DHT22;37741;49.748;8.490;2023-05-10T13:22:20;19.90;66.10
51661;DHT22;37741;49.748;8.490;2023-05-10T13:24:46;19.90;65.60
51661;DHT22;37741;49.748;8.490;2023-05-10T13:27:11;20.00;65.50
51661;DHT22;37741;49.748;8.490;2023-05-10T13:29:37;20.00;65.50
51661;DHT22;37741;49.748;8.490;2023-05-10T13:32:02;20.10;65.40
51661;DHT22;37741;49.748;8.490;2023-05-10T13:34:28;20.10;65.00
51661;DHT22;37741;49.748;8.490;2023-05-10T13:36:54;20.20;64.80
51661;DHT22;37741;49.748;8.490;2023-05-10T13:39:21;20.30;64.80
51661;DHT22;37741;49.748;8.490;2023-05-10T13:41:49;20.30;64.30
51661;DHT22;37741;49.748;8.490;2023-05-10T13:44:15;20.40;64.40
51661;DHT22;37741;49.748;8.490;2023-05-10T13:46:41;20.40;64.30
51661;DHT22;37741;49.748;8.490;2023-05-10T13:49:10;20.50;64.40
51661;DHT22;37741;49.748;8.490;2023-05-10T13:51:37;20.50;64.30
51661;DHT22;37741;49.748;8.490;2023-05-10T13:54:02;20.50;64.30
51661;DHT22;37741;49.748;8.490;2023-05-10T13:56:28;20.60;64.30
51661;DHT22;37741;49.748;8.490;2023-05-10T13:58:54;20.60;64.00
51661;DHT22;37741;49.748;8.490;2023-05-10T14:01:19;20.70;63.80
51661;DHT22;37741;49.748;8.490;2023-05-10T14:03:45;20.70;63.60
51661;DHT22;37741;49.748;8.490;2023-05-10T14:06:11;20.70;63.50
51661;DHT22;37741;49.748;8.490;2023-05-10T14:08:36;20.80;63.50
51661;DHT22;37741;49.748;8.490;2023-05-10T14:11:02;20.80;63.40
51661;DHT22;37741;49.748;8.490;2023-05-10T14:13:28;20.80;63.50
51661;DHT22;37741;49.748;8.490;2023-05-10T14:15:54;20.90;63.40
51661;DHT22;37741;49.748;8.490;2023-05-10T14:18:20;21.00;62.50
51661;DHT22;37741;49.748;8.490;2023-05-10T14:20:45;21.00;62.50
51661;DHT22;37741;49.748;8.490;2023-05-10T14:23:11;21.10;62.40
51661;DHT22;37741;49.748;8.490;2023-05-10T14:25:39;21.10;62.20
51661;DHT22;37741;49.748;8.490;2023-05-10T14:28:05;21.20;62.00
51661;DHT22;37741;49.748;8.490;2023-05-10T14:30:31;21.20;61.90
51661;DHT22;37741;49.748;8.490;2023-05-10T14:32:56;21.30;61.70
51661;DHT22;37741;49.748;8.490;2023-05-10T14:35:23;21.30;61.60
51661;DHT22;37741;49.748;8.490;2023-05-10T14:37:49;21.40;61.40
51661;DHT22;37741;49.748;8.490;2023-05-10T14:40:14;21.40;61.30
51661;DHT22;37741;49.748;8.490;2023-05-10T14:42:42;21.50;61.30
51661;DHT22;37741;49.748;8.490;2023-05-10T14:45:09;21.50;61.10
51661;DHT22;37741;49.748;8.490;2023-05-10T14:47:38;21.50;61.00
51661;DHT22;37741;49.748;8.490;2023-05-10T14:50:03;21.60;61.00
51661;DHT22;37741;49.748;8.490;2023-05-10T14:52:29;21.60;60.90
51661;DHT22;37741;49.748;8.490;2023-05-10T14:54:55;21.60;60.70
51661;DHT22;37741;49.748;8.490;2023-05-10T14:57:20;21.70;60.50
51661;DHT22;37741;49.748;8.490;2023-05-10T14:59:46;21.80;60.30
51661;DHT22;37741;49.748;8.490;2023-05-10T15:02:12;21.70;60.20
51661;DHT22;37741;49.748;8.490;2023-05-10T15:04:37;21.80;60.10
51661;DHT22;37741;49.748;8.490;2023-05-10T15:07:03;21.80;60.30
51661;DHT22;37741;49.748;8.490;2023-05-10T15:09:29;21.80;60.10
51661;DHT22;37741;49.748;8.490;2023-05-10T15:11:55;21.90;59.90
51661;DHT22;37741;49.748;8.490;2023-05-10T15:14:22;21.90;59.80
51661;DHT22;37741;49.748;8.490;2023-05-10T15:16:47;21.90;59.50
51661;DHT22;37741;49.748;8.490;2023-05-10T15:19:13;21.90;59.40
51661;DHT22;37741;49.748;8.490;2023-05-10T15:21:38;21.90;59.20
51661;DHT22;37741;49.748;8.490;2023-05-10T15:24:07;21.90;59.10
51661;DHT22;37741;49.748;8.490;2023-05-10T15:26:33;22.00;59.00
51661;DHT22;37741;49.748;8.490;2023-05-10T15:28:58;21.90;59.00
51661;DHT22;37741;49.748;8.490;2023-05-10T15:31:24;22.00;59.10
51661;DHT22;37741;49.748;8.490;2023-05-10T15:33:50;22.00;58.70
51661;DHT22;37741;49.748;8.490;2023-05-10T15:36:16;22.00;58.60
51661;DHT22;37741;49.748;8.490;2023-05-10T15:38:43;22.00;58.90
51661;DHT22;37741;49.748;8.490;2023-05-10T15:41:09;22.00;58.90
51661;DHT22;37741;49.748;8.490;2023-05-10T15:43:34;22.00;58.60
51661;DHT22;37741;49.748;8.490;2023-05-10T15:46:00;22.00;58.80
51661;DHT22;37741;49.748;8.490;2023-05-10T15:48:26;22.00;58.60
51661;DHT22;37741;49.748;8.490;2023-05-10T15:50:52;22.10;58.60
51661;DHT22;37741;49.748;8.490;2023-05-10T15:53:18;22.10;58.20
51661;DHT22;37741;49.748;8.490;2023-05-10T15:55:43;22.10;58.20
51661;DHT22;37741;49.748;8.490;2023-05-10T15:58:09;22.10;58.00
51661;DHT22;37741;49.748;8.490;2023-05-10T16:00:35;22.10;58.10
51661;DHT22;37741;49.748;8.490;2023-05-10T16:03:01;22.20;58.00
51661;DHT22;37741;49.748;8.490;2023-05-10T16:05:26;22.20;57.90
51661;DHT22;37741;49.748;8.490;2023-05-10T16:07:56;22.20;57.90
51661;DHT22;37741;49.748;8.490;2023-05-10T16:10:21;22.30;57.70